Time;durP1;ratioP1;P1;durP2;ratioP2;P2;SDS_P1;SDS_P2;PMS_P1;PMS_P2;Temp;Humidity;BMP_temperature;BMP_pressure;BME280_temperature;BME280_humidity;BME280_pressure;Samples;Min_cycle;Max_cycle;Signal;HPM_P1;HPM_P2
2021/12/08 00:00:10;;;;;;;7.23;6.47;;;;;;;2.24;100.00;99069.19;5051692;28;20618;-83
2021/12/08 00:02:39;;;;;;;7.13;5.80;;;;;;;2.31;100.00;99048.09;5071405;28;20202;-86
2021/12/08 00:05:06;;;;;;;6.87;6.30;;;;;;;2.34;100.00;99069.53;5071284;28;20191;-83
2021/12/08 00:07:34;;;;;;;8.07;6.20;;;;;;;2.30;100.00;99067.69;5070410;28;20681;-83
2021/12/08 00:10:12;;;;;;;9.57;6.77;;;;;;;2.45;100.00;99070.72;5072290;28;20684;-83
2021/12/08 00:15:23;;;;;;;11.47;7.17;;;;;;;1.79;100.00;98961.25;5075269;28;20193;-79
2021/12/08 00:17:52;;;;;;;17.20;9.57;;;;;;;2.48;100.00;99073.38;5076214;28;20198;-80
2021/12/08 00:20:19;;;;;;;7.13;5.90;;;;;;;2.42;100.00;99073.19;5075710;28;20207;-80
2021/12/08 00:22:46;;;;;;;12.43;7.87;;;;;;;2.12;100.00;99046.66;5075620;28;20197;-82
2021/12/08 00:25:13;;;;;;;8.90;6.30;;;;;;;2.36;100.00;99080.66;5075393;28;20195;-82
2021/12/08 00:27:39;;;;;;;4.83;4.43;;;;;;;2.17;100.00;99063.03;5074854;28;20689;-83
2021/12/08 00:30:08;;;;;;;3.30;3.07;;;;;;;2.45;100.00;99083.50;5075324;28;20198;-85
2021/12/08 00:32:36;;;;;;;9.13;6.60;;;;;;;2.34;100.00;99084.00;5074995;28;20292;-81
2021/12/08 00:35:05;;;;;;;5.30;4.77;;;;;;;2.49;100.00;99094.69;5074611;28;20273;-83
2021/12/08 00:37:32;;;;;;;5.00;4.43;;;;;;;2.47;100.00;99092.09;5074622;28;20677;-81
2021/12/08 00:39:59;;;;;;;4.73;4.33;;;;;;;2.51;100.00;99098.16;5074931;28;20191;-81
2021/12/08 00:42:26;;;;;;;3.37;3.07;;;;;;;2.21;100.00;99031.59;5074769;28;20191;-82
2021/12/08 00:44:54;;;;;;;7.77;5.60;;;;;;;2.35;100.00;99085.75;5075134;28;20187;-83
2021/12/08 00:47:20;;;;;;;7.23;5.40;;;;;;;2.50;100.00;99112.63;5075100;28;20199;-83
2021/12/08 00:49:47;;;;;;;9.77;5.80;;;;;;;2.36;100.00;99108.78;5075101;28;20194;-81
2021/12/08 00:52:15;;;;;;;10.43;6.33;;;;;;;2.52;100.00;99127.16;5075227;28;20237;-81
2021/12/08 00:54:43;;;;;;;7.87;5.23;;;;;;;2.57;100.00;99125.63;5075137;28;20194;-84
2021/12/08 00:57:11;;;;;;;7.83;5.93;;;;;;;2.17;100.00;99080.91;5075224;28;20388;-81
2021/12/08 00:59:38;;;;;;;18.97;11.87;;;;;;;2.53;100.00;99122.13;5074942;28;20198;-81
2021/12/08 01:02:05;;;;;;;24.97;15.10;;;;;;;2.56;100.00;99129.00;5074795;28;20202;-82
2021/12/08 01:04:34;;;;;;;12.60;9.17;;;;;;;2.63;100.00;99123.25;5074534;28;20198;-81
2021/12/08 01:07:01;;;;;;;5.10;4.60;;;;;;;2.60;100.00;99128.28;5074783;28;20609;-81
2021/12/08 01:09:30;;;;;;;21.43;12.40;;;;;;;2.60;100.00;99131.72;5074651;28;20195;-81
2021/12/08 01:11:57;;;;;;;11.97;7.40;;;;;;;2.43;100.00;99131.16;5074081;28;20277;-84
2021/12/08 01:14:25;;;;;;;14.00;9.77;;;;;;;2.33;100.00;99123.16;5074103;28;20685;-84
2021/12/08 01:16:52;;;;;;;10.13;8.07;;;;;;;2.48;100.00;99114.28;5073728;28;20202;-80
2021/12/08 01:19:19;;;;;;;6.90;5.93;;;;;;;2.47;100.00;99111.66;5074655;28;20306;-83
2021/12/08 01:21:46;;;;;;;14.13;7.80;;;;;;;2.46;100.00;99120.19;5074703;28;20202;-83
2021/12/08 01:24:13;;;;;;;12.27;8.50;;;;;;;2.44;100.00;99120.13;5074019;28;20264;-84
2021/12/08 01:26:41;;;;;;;22.33;12.43;;;;;;;2.44;100.00;99102.22;5073979;28;20202;-85
2021/12/08 01:29:08;;;;;;;21.27;13.17;;;;;;;2.19;100.00;99058.81;5073572;28;20222;-81
2021/12/08 01:31:39;;;;;;;20.97;13.37;;;;;;;2.51;100.00;99116.06;5074241;28;20673;-84
2021/12/08 01:34:06;;;;;;;15.07;9.13;;;;;;;2.61;100.00;99124.88;5073929;28;20197;-80
2021/12/08 01:36:33;;;;;;;21.17;13.93;;;;;;;2.55;100.00;99119.59;5073885;28;20198;-81
2021/12/08 01:38:59;;;;;;;14.87;10.93;;;;;;;2.61;100.00;99124.88;5073696;28;20199;-83
2021/12/08 01:41:27;;;;;;;14.00;10.27;;;;;;;2.58;100.00;99127.34;5074245;28;20202;-80
2021/12/08 01:46:39;;;;;;;5.43;4.30;;;;;;;2.66;100.00;99143.81;5073674;28;20210;-83
2021/12/08 01:49:06;;;;;;;9.73;6.50;;;;;;;1.96;100.00;99035.06;5073247;28;21292;-84
2021/12/08 01:51:33;;;;;;;7.83;6.40;;;;;;;2.56;100.00;99149.47;5073804;28;20195;-83
2021/12/08 01:54:02;;;;;;;6.73;5.10;;;;;;;2.60;100.00;99143.63;5073759;28;20709;-80
2021/12/08 01:56:31;;;;;;;8.20;5.00;;;;;;;2.63;100.00;99138.63;5074046;28;20201;-79
2021/12/08 01:59:00;;;;;;;3.40;3.10;;;;;;;2.55;100.00;99145.16;5074409;28;20191;-80
2021/12/08 02:01:29;;;;;;;7.60;5.43;;;;;;;2.61;100.00;99145.34;5073444;28;20264;-81
2021/12/08 02:03:56;;;;;;;4.93;4.47;;;;;;;2.50;100.00;99143.34;5072914;28;20206;-82
2021/12/08 02:06:25;;;;;;;9.07;6.80;;;;;;;2.41;100.00;99148.16;5073226;28;20726;-84
2021/12/08 02:08:53;;;;;;;7.20;6.33;;;;;;;2.34;100.00;99146.25;5073528;28;20266;-79
2021/12/08 02:11:20;;;;;;;8.97;6.13;;;;;;;2.36;100.00;99139.47;5073437;28;20198;-80
2021/12/08 02:13:51;;;;;;;10.37;6.10;;;;;;;2.38;100.00;99122.50;5073256;28;20721;-81
2021/12/08 02:16:19;;;;;;;4.57;3.97;;;;;;;2.53;100.00;99137.47;5072627;28;20231;-82
2021/12/08 02:18:48;;;;;;;2.93;2.73;;;;;;;2.09;100.00;99074.69;5074311;28;20194;-81
2021/12/08 02:21:27;;;;;;;5.03;4.57;;;;;;;2.18;100.00;99092.84;5073706;28;20219;-83
2021/12/08 02:23:56;;;;;;;10.30;6.40;;;;;;;2.38;100.00;99144.66;5072663;28;20186;-80
2021/12/08 02:26:23;;;;;;;7.27;5.50;;;;;;;2.38;100.00;99137.84;5072984;28;20194;-82
2021/12/08 02:28:51;;;;;;;10.37;5.93;;;;;;;2.22;100.00;99102.38;5072999;28;20210;-85
2021/12/08 02:31:26;;;;;;;8.67;5.50;;;;;;;2.36;100.00;99144.59;5072745;28;20198;-80
2021/12/08 02:47:55;;;;;;;11.30;8.40;;;;;;;2.39;100.00;99162.59;5072559;28;20602;-82
2021/12/08 02:50:25;;;;;;;11.63;8.00;;;;;;;2.14;100.00;99126.81;5072621;28;20758;-82
2021/12/08 02:52:54;;;;;;;10.63;8.53;;;;;;;2.40;100.00;99155.78;5072714;28;20238;-79
2021/12/08 02:55:21;;;;;;;9.40;6.63;;;;;;;2.43;100.00;99150.75;5072041;28;20191;-81
2021/12/08 02:57:48;;;;;;;18.83;10.57;;;;;;;2.33;100.00;99138.50;5072161;28;20673;-79
2021/12/08 03:00:18;;;;;;;11.00;7.03;;;;;;;2.29;100.00;99163.09;5072682;28;20195;-80
2021/12/08 03:02:45;;;;;;;5.67;5.03;;;;;;;2.29;100.00;99159.69;5071229;28;20264;-82
2021/12/08 03:05:12;;;;;;;15.40;8.53;;;;;;;2.33;100.00;99156.41;5071561;28;20627;-80
2021/12/08 03:07:39;;;;;;;13.80;8.03;;;;;;;2.32;100.00;99158.09;5071600;28;20195;-78
2021/12/08 03:10:11;;;;;;;9.53;6.70;;;;;;;2.37;100.00;99161.69;5071259;28;20281;-82
2021/12/08 03:12:38;;;;;;;6.90;5.73;;;;;;;2.27;100.00;99169.88;5071077;28;20223;-80
2021/12/08 03:15:07;;;;;;;2.63;2.43;;;;;;;2.34;100.00;99171.81;5072141;28;20190;-82
2021/12/08 03:17:35;;;;;;;7.03;6.33;;;;;;;2.30;100.00;99175.09;5070615;28;20198;-81
2021/12/08 03:20:03;;;;;;;8.87;4.33;;;;;;;2.29;100.00;99170.78;5072050;28;20203;-81
2021/12/08 03:22:30;;;;;;;9.00;7.80;;;;;;;2.18;100.00;99174.66;5072575;28;20639;-81
2021/12/08 03:25:00;;;;;;;6.37;5.27;;;;;;;2.18;100.00;99172.13;5072021;28;20201;-78
2021/12/08 03:27:34;;;;;;;7.97;5.87;;;;;;;2.21;100.00;99179.03;5071075;28;20752;-80
2021/12/08 03:30:13;;;;;;;9.20;5.93;;;;;;;2.22;100.00;99181.63;5072267;28;20267;-80
2021/12/08 03:32:40;;;;;;;8.23;6.20;;;;;;;2.15;100.00;99172.00;5071513;28;20215;-78
2021/12/08 03:35:09;;;;;;;9.83;5.60;;;;;;;2.31;100.00;99186.19;5071610;28;20593;-81
2021/12/08 03:37:38;;;;;;;6.60;4.57;;;;;;;2.31;100.00;99181.06;5072574;28;20202;-82
2021/12/08 03:40:10;;;;;;;6.00;5.40;;;;;;;2.29;100.00;99196.34;5072545;28;20696;-81
2021/12/08 03:42:39;;;;;;;4.40;4.00;;;;;;;2.10;100.00;99148.00;5072717;28;20202;-79
2021/12/08 03:45:09;;;;;;;6.70;5.70;;;;;;;1.97;100.00;99145.84;5071064;28;20198;-81
2021/12/08 03:47:39;;;;;;;5.30;4.00;;;;;;;2.36;100.00;99195.72;5071425;28;20578;-81
2021/12/08 03:50:10;;;;;;;5.63;4.73;;;;;;;2.19;100.00;99178.97;5072305;28;20278;-83
2021/12/08 03:52:38;;;;;;;6.17;5.57;;;;;;;2.21;100.00;99189.25;5071556;28;20229;-79
2021/12/08 03:55:06;;;;;;;4.30;3.83;;;;;;;2.11;100.00;99175.28;5071467;28;20195;-81
2021/12/08 03:57:33;;;;;;;4.37;4.00;;;;;;;2.26;100.00;99198.81;5072830;28;20191;-83
2021/12/08 04:00:01;;;;;;;6.50;4.00;;;;;;;2.22;100.00;99201.22;5072278;28;20194;-81
2021/12/08 04:02:28;;;;;;;5.57;5.03;;;;;;;2.22;100.00;99202.09;5071224;28;20191;-83
2021/12/08 04:04:55;;;;;;;3.73;3.47;;;;;;;2.22;100.00;99206.31;5070864;28;20201;-81
2021/12/08 04:07:22;;;;;;;4.70;4.30;;;;;;;2.25;100.00;99202.19;5071066;28;20264;-80
2021/12/08 04:09:50;;;;;;;5.00;4.57;;;;;;;2.06;100.00;99181.94;5071685;28;20280;-80
2021/12/08 04:12:20;;;;;;;11.60;6.47;;;;;;;2.22;100.00;99211.44;5071012;28;20282;-78
2021/12/08 04:14:51;;;;;;;12.13;6.23;;;;;;;2.21;100.00;99218.22;5071727;28;20283;-80
2021/12/08 04:17:24;;;;;;;10.87;7.10;;;;;;;2.22;100.00;99221.66;5071844;28;20282;-80
2021/12/08 04:19:53;;;;;;;6.37;5.00;;;;;;;1.99;100.00;99180.88;5072247;28;20276;-81
2021/12/08 04:22:25;;;;;;;15.13;8.17;;;;;;;2.10;100.00;99217.03;5072339;28;20229;-83
2021/12/08 04:24:53;;;;;;;12.80;8.00;;;;;;;2.13;100.00;99226.47;5071489;28;20248;-80
2021/12/08 04:27:23;;;;;;;11.47;7.87;;;;;;;2.15;100.00;99225.72;5070792;28;20187;-84
2021/12/08 04:29:51;;;;;;;24.17;12.23;;;;;;;1.72;100.00;99141.59;5071311;28;20219;-81
2021/12/08 04:32:25;;;;;;;8.97;7.33;;;;;;;2.15;100.00;99230.81;5071910;28;20198;-80
2021/12/08 04:34:57;;;;;;;16.57;11.20;;;;;;;2.20;100.00;99233.53;5070851;28;20232;-82
2021/12/08 04:37:29;;;;;;;8.77;6.27;;;;;;;1.92;100.00;99186.59;5071946;28;20230;-84
2021/12/08 04:40:10;;;;;;;14.20;10.80;;;;;;;2.22;100.00;99243.00;5071612;28;20271;-79
2021/12/08 04:42:51;;;;;;;15.63;9.80;;;;;;;2.23;100.00;99229.41;5070540;28;20195;-79
2021/12/08 04:45:25;;;;;;;27.73;15.43;;;;;;;1.74;100.00;99156.97;5071271;28;20195;-80
2021/12/08 04:48:11;;;;;;;8.53;6.90;;;;;;;2.25;100.00;99243.09;5073012;28;20195;-80
2021/12/08 04:53:38;;;;;;;7.17;5.87;;;;;;;2.05;100.00;99200.66;5049640;28;20309;-80
2021/12/08 05:01:58;;;;;;;10.87;7.47;;;;;;;2.13;100.00;99212.00;5071705;28;20679;-81
2021/12/08 05:04:38;;;;;;;14.93;7.07;;;;;;;2.34;100.00;99248.53;5073936;28;20199;-80
2021/12/08 05:07:30;;;;;;;8.93;7.40;;;;;;;2.12;100.00;99220.50;5074585;28;20195;-81
2021/12/08 05:10:01;;;;;;;11.53;7.40;;;;;;;1.95;100.00;99178.16;5074819;28;20210;-80
2021/12/08 05:12:30;;;;;;;19.10;8.37;;;;;;;2.29;100.00;99242.38;5073202;28;20624;-79
2021/12/08 05:15:01;;;;;;;8.80;6.57;;;;;;;2.36;100.00;99254.56;5074499;28;20234;-85
2021/12/08 05:17:31;;;;;;;9.90;8.17;;;;;;;2.37;100.00;99258.88;5074956;28;20201;-79
2021/12/08 05:20:06;;;;;;;9.53;8.23;;;;;;;2.44;100.00;99259.94;5063483;28;20650;-81
2021/12/08 05:22:41;;;;;;;9.00;6.53;;;;;;;2.37;100.00;99274.22;5075501;28;20665;-83
2021/12/08 05:25:11;;;;;;;11.67;9.47;;;;;;;2.39;100.00;99277.69;5074895;28;20205;-81
2021/12/08 05:27:44;;;;;;;16.47;8.53;;;;;;;2.39;100.00;99272.56;5073959;28;20546;-80
2021/12/08 05:30:15;;;;;;;15.97;11.13;;;;;;;2.26;100.00;99249.09;5073289;28;20195;-80
2021/12/08 05:32:42;;;;;;;15.77;11.13;;;;;;;2.07;100.00;99204.13;5073605;28;20194;-82
2021/12/08 05:35:15;;;;;;;34.97;15.13;;;;;;;2.52;100.00;99278.97;5074412;28;20230;-84
2021/12/08 05:37:42;;;;;;;13.40;7.70;;;;;;;2.46;100.00;99273.66;5073654;28;20587;-81
2021/12/08 05:40:13;;;;;;;16.17;11.37;;;;;;;2.46;100.00;99277.06;5073356;28;20195;-81
2021/12/08 05:42:40;;;;;;;32.33;16.97;;;;;;;2.53;100.00;99279.84;5074916;28;20203;-82
2021/12/08 05:45:10;;;;;;;38.97;21.70;;;;;;;2.52;100.00;99293.47;5073966;28;20195;-79
2021/12/08 05:47:37;;;;;;;40.20;21.67;;;;;;;2.54;100.00;99285.00;5074056;28;20199;-79
2021/12/08 05:50:06;;;;;;;68.00;29.87;;;;;;;2.54;100.00;99289.25;5072879;28;20202;-81
2021/12/08 05:52:35;;;;;;;27.40;16.30;;;;;;;2.07;100.00;99219.44;5073145;28;20191;-80
2021/12/08 05:55:02;;;;;;;16.03;10.30;;;;;;;2.61;100.00;99301.44;5073655;28;20335;-81
2021/12/08 05:57:35;;;;;;;26.90;13.33;;;;;;;2.64;100.00;99299.00;5074860;28;20252;-82
2021/12/08 06:00:04;;;;;;;14.53;10.97;;;;;;;2.54;100.00;99302.03;5073669;28;20191;-80
2021/12/08 06:02:37;;;;;;;33.23;19.43;;;;;;;2.54;100.00;99299.47;5073637;28;20191;-80
2021/12/08 06:05:05;;;;;;;18.80;13.80;;;;;;;2.58;100.00;99302.19;5073592;28;20210;-82
2021/12/08 06:07:34;;;;;;;23.60;15.07;;;;;;;2.14;100.00;99223.97;5073106;28;20187;-82
2021/12/08 06:10:06;;;;;;;16.87;10.30;;;;;;;2.64;100.00;99299.84;5073110;28;20206;-82
2021/12/08 06:12:33;;;;;;;18.47;12.20;;;;;;;2.68;100.00;99303.38;5073931;28;20206;-81
2021/12/08 06:15:00;;;;;;;16.17;11.17;;;;;;;2.71;100.00;99312.00;5073772;28;20225;-84
2021/12/08 06:17:30;;;;;;;33.80;15.80;;;;;;;2.76;100.00;99307.94;5074131;28;20590;-82
2021/12/08 06:19:58;;;;;;;32.83;16.53;;;;;;;2.76;100.00;99309.63;5071216;28;20225;-82
2021/12/08 06:22:27;;;;;;;29.43;12.40;;;;;;;2.76;100.00;99314.75;5072095;28;20195;-81
2021/12/08 06:24:55;;;;;;;36.70;19.67;;;;;;;2.63;100.00;99313.47;5072752;28;20203;-82
2021/12/08 06:27:22;;;;;;;48.97;23.00;;;;;;;2.67;100.00;99304.22;5073186;28;20268;-81
2021/12/08 06:29:52;;;;;;;34.63;18.13;;;;;;;2.77;100.00;99319.03;5073191;28;20299;-81
2021/12/08 06:32:19;;;;;;;47.93;21.57;;;;;;;2.75;100.00;99321.53;5072973;28;20203;-81
2021/12/08 06:34:50;;;;;;;40.47;22.40;;;;;;;2.87;100.00;99334.75;5071260;28;20624;-81
2021/12/08 06:37:23;;;;;;;23.03;12.83;;;;;;;2.85;100.00;99332.97;5073262;28;20191;-82
2021/12/08 06:39:57;;;;;;;62.47;27.13;;;;;;;2.84;100.00;99339.78;5072520;28;20202;-81
2021/12/08 06:42:28;;;;;;;48.33;19.70;;;;;;;2.80;100.00;99332.81;5072394;28;20194;-81
2021/12/08 06:44:56;;;;;;;49.77;24.53;;;;;;;2.43;100.00;99271.84;5073168;28;20202;-83
2021/12/08 06:47:28;;;;;;;28.50;14.13;;;;;;;2.60;100.00;99297.16;5073606;28;20194;-81
2021/12/08 06:49:58;;;;;;;40.77;19.27;;;;;;;2.89;100.00;99348.47;5073455;28;20191;-80
2021/12/08 06:52:30;;;;;;;49.03;23.70;;;;;;;2.82;100.00;99361.00;5074823;28;20195;-82
2021/12/08 06:55:06;;;;;;;27.10;12.77;;;;;;;2.96;100.00;99370.06;5073682;28;20230;-80
2021/12/08 06:57:36;;;;;;;25.17;14.70;;;;;;;2.97;100.00;99366.66;5072434;28;20218;-82
2021/12/08 07:00:17;;;;;;;20.93;13.87;;;;;;;2.99;100.00;99365.03;5073282;28;20195;-80
2021/12/08 07:02:57;;;;;;;26.40;13.87;;;;;;;3.09;100.00;99371.31;5073014;28;20251;-82
2021/12/08 07:05:30;;;;;;;26.80;15.97;;;;;;;3.02;100.00;99372.81;5074466;28;20199;-80
2021/12/08 07:08:02;;;;;;;37.23;19.67;;;;;;;3.00;100.00;99376.97;5075186;28;20194;-82
2021/12/08 07:10:35;;;;;;;35.03;18.10;;;;;;;3.05;100.00;99375.47;5075175;28;20256;-81
2021/12/08 07:13:10;;;;;;;30.10;16.50;;;;;;;3.13;100.00;99383.41;5071960;28;20199;-73
2021/12/08 07:15:40;;;;;;;32.80;16.47;;;;;;;3.11;100.00;99385.91;5075899;28;20744;-82
2021/12/08 07:18:10;;;;;;;27.97;14.87;;;;;;;3.07;100.00;99388.31;5076314;28;20194;-81
2021/12/08 07:20:44;;;;;;;26.77;13.83;;;;;;;3.09;100.00;99392.66;5073948;28;20215;-83
2021/12/08 07:23:13;;;;;;;34.57;18.20;;;;;;;3.19;100.00;99389.59;5073569;28;20190;-80
2021/12/08 07:25:43;;;;;;;21.17;12.43;;;;;;;3.26;100.00;99404.34;5073191;28;20191;-79
2021/12/08 07:28:10;;;;;;;32.63;15.13;;;;;;;3.29;100.00;99401.00;5073254;28;20222;-79
2021/12/08 07:30:42;;;;;;;27.90;16.77;;;;;;;3.25;100.00;99400.03;5076960;28;20665;-79
2021/12/08 07:33:09;;;;;;;44.47;19.70;;;;;;;3.28;100.00;99412.09;5077779;28;20199;-80
2021/12/08 07:35:41;;;;;;;24.73;11.67;;;;;;;3.11;100.00;99387.56;5073818;28;20229;-81
2021/12/08 07:38:10;;;;;;;15.97;8.43;;;;;;;3.30;100.00;99418.13;5074682;28;20289;-79
2021/12/08 07:40:44;;;;;;;19.43;9.43;;;;;;;3.31;100.00;99415.63;5069836;28;20214;-80
2021/12/08 07:43:16;;;;;;;37.87;18.83;;;;;;;3.46;100.00;99416.09;5071647;28;20665;-76
2021/12/08 07:45:46;;;;;;;22.10;13.27;;;;;;;3.50;100.00;99424.75;5073225;28;20202;-79
2021/12/08 07:48:18;;;;;;;29.50;17.47;;;;;;;3.39;100.00;99413.28;5072178;28;20191;-79
2021/12/08 07:50:50;;;;;;;20.27;11.13;;;;;;;2.92;100.00;99334.91;5072208;28;20195;-78
2021/12/08 07:53:21;;;;;;;33.10;18.47;;;;;;;3.17;100.00;99370.75;5072733;28;20206;-79
2021/12/08 07:55:51;;;;;;;23.20;13.23;;;;;;;3.54;100.00;99424.03;5074299;28;20591;-79
2021/12/08 07:58:21;;;;;;;25.87;14.83;;;;;;;3.57;100.00;99433.53;5072936;28;20637;-80
2021/12/08 08:00:52;;;;;;;20.10;12.13;;;;;;;3.55;100.00;99424.91;5073627;28;20194;-81
2021/12/08 08:03:20;;;;;;;22.77;12.13;;;;;;;3.61;100.00;99432.78;5072951;28;20689;-80
2021/12/08 08:05:49;;;;;;;33.93;18.07;;;;;;;3.40;100.00;99418.47;5074711;28;20206;-80
2021/12/08 08:08:18;;;;;;;29.00;13.87;;;;;;;3.64;100.00;99450.84;5073133;28;20201;-80
2021/12/08 08:10:48;;;;;;;33.30;17.83;;;;;;;3.57;100.00;99425.84;5073034;28;20199;-79
2021/12/08 08:13:18;;;;;;;29.33;14.27;;;;;;;3.71;100.00;99434.84;5071590;28;20229;-80
2021/12/08 08:15:51;;;;;;;48.33;22.20;;;;;;;3.71;100.00;99427.16;5069307;28;20288;-80
2021/12/08 08:18:24;;;;;;;38.57;20.83;;;;;;;3.73;100.00;99448.56;5078024;28;20286;-79
2021/12/08 08:20:56;;;;;;;35.30;18.90;;;;;;;3.74;100.00;99448.63;5075953;28;20236;-79
2021/12/08 08:23:27;;;;;;;33.37;17.77;;;;;;;3.76;100.00;99446.09;5076053;28;20195;-79
2021/12/08 08:25:56;;;;;;;24.33;11.90;;;;;;;3.79;100.00;99448.72;5073152;28;20186;-81
2021/12/08 08:28:24;;;;;;;30.57;15.60;;;;;;;3.91;100.00;99449.13;5074004;28;20280;-79
2021/12/08 08:30:56;;;;;;;32.07;17.17;;;;;;;3.75;100.00;99449.47;5073431;28;20195;-79
2021/12/08 08:33:27;;;;;;;19.50;11.50;;;;;;;3.79;100.00;99457.31;5076016;28;20199;-79
2021/12/08 08:35:56;;;;;;;23.27;12.87;;;;;;;3.78;100.00;99444.44;5075813;28;20214;-78
2021/12/08 08:38:27;;;;;;;36.60;18.13;;;;;;;3.84;100.00;99455.75;5076836;28;20569;-80
2021/12/08 08:40:56;;;;;;;23.83;12.87;;;;;;;3.75;100.00;99454.59;5078492;28;20195;-78
2021/12/08 08:43:25;;;;;;;51.77;23.93;;;;;;;3.87;100.00;99448.16;5076809;28;20195;-78
2021/12/08 08:45:56;;;;;;;58.53;29.10;;;;;;;3.92;100.00;99458.56;5076581;28;20268;-79
2021/12/08 08:48:26;;;;;;;48.13;23.40;;;;;;;3.80;100.00;99458.19;5075742;28;20222;-78
2021/12/08 08:50:57;;;;;;;33.07;17.03;;;;;;;3.77;100.00;99458.09;5078052;28;20195;-78
2021/12/08 08:53:27;;;;;;;41.43;19.30;;;;;;;3.53;100.00;99413.75;5076112;28;20590;-79
2021/12/08 08:56:02;;;;;;;34.17;16.27;;;;;;;3.99;100.00;99443.41;5076526;28;20284;-78
2021/12/08 08:58:32;;;;;;;32.83;17.27;;;;;;;3.90;100.00;99452.50;5075896;28;20194;-78
2021/12/08 09:01:04;;;;;;;21.93;12.30;;;;;;;3.96;100.00;99450.13;5074381;28;20190;-77
2021/12/08 09:03:34;;;;;;;29.37;12.97;;;;;;;3.91;100.00;99447.44;5076814;28;20195;-78
2021/12/08 09:06:06;;;;;;;43.10;20.53;;;;;;;4.12;100.00;99438.66;5074228;28;20229;-78
2021/12/08 09:08:34;;;;;;;41.97;17.63;;;;;;;4.10;100.00;99441.19;5076685;28;20198;-78
2021/12/08 09:11:10;;;;;;;27.83;15.77;;;;;;;3.86;100.00;99427.59;5074709;28;20194;-77
2021/12/08 09:13:41;;;;;;;31.63;16.10;;;;;;;3.99;100.00;99438.25;5074867;28;20680;-77
2021/12/08 09:16:15;;;;;;;34.37;18.90;;;;;;;3.98;100.00;99438.25;5074889;28;20215;-78
2021/12/08 09:18:49;;;;;;;26.60;14.13;;;;;;;4.00;100.00;99436.56;5075582;28;20194;-78
2021/12/08 09:21:21;;;;;;;23.37;8.50;;;;;;;4.10;100.00;99443.75;5075042;28;20268;-77
2021/12/08 09:24:02;;;;;;;65.53;27.70;;;;;;;4.02;100.00;99439.19;5073358;28;20563;-77
2021/12/08 09:26:34;;;;;;;25.80;12.90;;;;;;;3.96;100.00;99409.97;5076137;28;20199;-78
2021/12/08 09:29:07;;;;;;;21.60;10.70;;;;;;;4.09;100.00;99442.00;5076405;28;20234;-79
2021/12/08 09:31:39;;;;;;;33.63;16.93;;;;;;;4.18;100.00;99437.13;5072503;28;20199;-81
2021/12/08 09:34:10;;;;;;;31.90;15.77;;;;;;;4.19;100.00;99433.75;5074656;28;20206;-79
2021/12/08 09:36:41;;;;;;;26.87;13.93;;;;;;;4.21;100.00;99436.38;5076375;28;20728;-81
2021/12/08 09:39:12;;;;;;;31.47;14.43;;;;;;;4.19;100.00;99441.44;5074194;28;20195;-79
2021/12/08 09:41:43;;;;;;;24.00;12.10;;;;;;;4.12;100.00;99431.81;5074984;28;20187;-78
2021/12/08 09:44:13;;;;;;;29.17;14.00;;;;;;;3.98;100.00;99407.47;5075890;28;20203;-79
2021/12/08 09:46:45;;;;;;;23.10;11.70;;;;;;;4.11;100.00;99434.34;5078412;28;20213;-79
2021/12/08 09:49:14;;;;;;;34.90;15.40;;;;;;;3.94;100.00;99400.50;5080454;28;20187;-80
2021/12/08 09:51:42;;;;;;;22.90;13.13;;;;;;;3.87;100.00;99378.06;5085275;28;20290;-79
2021/12/08 09:54:09;;;;;;;38.17;18.50;;;;;;;4.32;100.00;99434.97;5077833;28;20194;-81
2021/12/08 09:56:39;;;;;;;36.67;11.73;;;;;;;4.26;100.00;99430.53;5074211;28;20646;-81
2021/12/08 09:59:07;;;;;;;38.17;19.60;;;;;;;3.81;100.00;99336.88;5075831;28;20221;-82
2021/12/08 10:01:37;;;;;;;28.87;15.10;;;;;;;4.39;100.00;99432.63;5070412;28;20219;-81
2021/12/08 10:04:06;;;;;;;20.30;11.37;;;;;;;4.28;100.00;99397.25;5056931;28;20242;-81
2021/12/08 10:06:33;;;;;;;27.13;13.73;;;;;;;4.64;100.00;99443.63;5063537;28;20198;-82
2021/12/08 10:09:00;;;;;;;27.80;15.30;;;;;;;4.53;100.00;99445.84;5079707;28;20199;-80
2021/12/08 10:11:30;;;;;;;20.83;12.13;;;;;;;3.99;100.00;99368.19;5080868;28;20175;-80
2021/12/08 10:13:57;;;;;;;23.60;13.40;;;;;;;4.24;100.00;99456.97;5065651;28;20226;-81
2021/12/08 10:16:24;;;;;;;24.30;13.73;;;;;;;4.05;100.00;99411.94;5074871;28;20234;-78
2021/12/08 10:18:51;;;;;;;28.03;15.13;;;;;;;4.43;100.00;99456.69;5074731;28;20195;-80
2021/12/08 10:21:20;;;;;;;28.80;13.63;;;;;;;4.38;100.00;99456.56;5077623;28;20202;-82
2021/12/08 10:23:49;;;;;;;23.50;12.20;;;;;;;3.54;100.00;99315.53;5076094;28;20203;-80
2021/12/08 10:26:19;;;;;;;30.07;15.53;;;;;;;4.27;100.00;99432.28;5077580;28;20214;-78
2021/12/08 10:28:48;;;;;;;31.23;14.87;;;;;;;4.30;100.00;99437.50;5075620;28;20646;-74
2021/12/08 10:31:25;;;;;;;25.37;13.90;;;;;;;4.39;100.00;99458.28;5075132;28;20187;-78
2021/12/08 10:34:00;;;;;;;34.60;16.23;;;;;;;4.48;100.00;99450.88;5075640;28;20661;-81
2021/12/08 10:36:46;;;;;;;30.77;14.80;;;;;;;4.25;100.00;99405.69;5076281;28;20228;-78
2021/12/08 10:39:20;;;;;;;13.97;7.17;;;;;;;4.47;100.00;99436.28;5062239;28;20199;-81
2021/12/08 10:41:54;;;;;;;19.80;8.43;;;;;;;4.41;100.00;99448.97;5073879;28;20206;-80
2021/12/08 10:44:23;;;;;;;27.73;12.57;;;;;;;4.57;100.00;99451.94;5077664;28;20203;-78
2021/12/08 10:46:52;;;;;;;25.10;14.07;;;;;;;4.64;100.00;99453.88;5075737;28;20203;-83
2021/12/08 10:49:25;;;;;;;24.37;14.10;;;;;;;4.60;100.00;99454.63;5077794;28;20213;-78
2021/12/08 10:54:38;;;;;;;30.30;17.03;;;;;;;4.72;100.00;99447.25;5072628;28;20209;-79
2021/12/08 10:57:22;;;;;;;33.47;16.93;;;;;;;4.36;100.00;99394.06;5074614;28;20199;-80
2021/12/08 10:59:56;;;;;;;33.97;16.97;;;;;;;4.47;100.00;99413.19;5074101;28;20198;-79
2021/12/08 11:02:41;;;;;;;32.73;17.10;;;;;;;4.81;100.00;99443.25;5073747;28;20302;-81
2021/12/08 11:05:31;;;;;;;54.23;26.53;;;;;;;4.98;100.00;99436.00;5073248;28;20207;-81
2021/12/08 11:08:02;;;;;;;40.37;19.00;;;;;;;4.86;100.00;99438.22;5074061;28;20197;-81
2021/12/08 11:10:29;;;;;;;159.00;44.00;;;;;;;4.63;100.00;99385.38;5072658;28;20183;-82
2021/12/08 11:12:56;;;;;;;34.03;17.37;;;;;;;5.11;100.00;99438.03;5071529;28;20199;-82
2021/12/08 11:15:24;;;;;;;21.70;11.00;;;;;;;4.68;100.00;99379.53;5073041;28;20225;-82
2021/12/08 11:18:09;;;;;;;11.30;6.10;;;;;;;5.27;100.00;99458.19;5073777;28;20680;-82
2021/12/08 11:20:43;;;;;;;36.03;19.20;;;;;;;5.29;100.00;99446.22;5072176;28;20276;-82
2021/12/08 11:23:15;;;;;;;29.53;14.77;;;;;;;5.23;100.00;99461.50;5071188;28;20195;-82
2021/12/08 11:25:45;;;;;;;28.80;16.60;;;;;;;5.07;100.00;99467.03;5061760;28;20186;-81
2021/12/08 11:28:20;;;;;;;24.57;13.93;;;;;;;4.49;100.00;99388.44;5072751;28;20229;-81
2021/12/08 11:30:47;;;;;;;23.60;13.27;;;;;;;4.91;100.00;99467.47;5072113;28;20197;-81
2021/12/08 11:33:16;;;;;;;30.80;15.73;;;;;;;4.61;100.00;99448.63;5071924;28;20248;-81
2021/12/08 11:35:45;;;;;;;30.17;15.37;;;;;;;4.91;100.00;99470.03;5072094;28;20218;-82
2021/12/08 11:38:14;;;;;;;19.63;11.10;;;;;;;4.02;100.00;99352.88;5071991;28;20187;-82
2021/12/08 11:40:41;;;;;;;28.67;14.73;;;;;;;4.64;100.00;99451.31;5073047;28;20576;-80
2021/12/08 11:43:14;;;;;;;40.83;19.80;;;;;;;4.85;100.00;99470.72;5075179;28;20198;-83
2021/12/08 11:45:42;;;;;;;32.40;16.93;;;;;;;5.00;100.00;99472.84;5079051;28;20264;-82
2021/12/08 11:48:24;;;;;;;35.47;18.20;;;;;;;4.93;100.00;99470.94;5071808;28;20597;-82
2021/12/08 11:51:08;;;;;;;29.83;17.07;;;;;;;4.74;100.00;99440.47;5070292;28;20191;-81
2021/12/08 11:53:39;;;;;;;37.87;19.17;;;;;;;4.86;100.00;99481.88;5071018;28;20191;-82
2021/12/08 11:56:07;;;;;;;38.87;18.87;;;;;;;4.79;100.00;99475.69;5071347;28;20222;-82
2021/12/08 11:58:34;;;;;;;39.07;14.40;;;;;;;4.84;100.00;99471.56;5066576;28;20195;-82
2021/12/08 12:01:02;;;;;;;25.40;13.47;;;;;;;4.96;100.00;99469.31;5068701;28;20194;-82
2021/12/08 12:03:30;;;;;;;35.53;17.97;;;;;;;4.90;100.00;99474.31;5078438;28;20221;-82
2021/12/08 12:05:57;;;;;;;72.30;30.70;;;;;;;4.90;100.00;99460.59;5074329;28;20186;-82